sensor_id;sensor_type;location;lat;lon;timestamp;temperature;humidity
31991;DHT22;18508;49.386;8.370;2023-04-08T00:01:03;8.20;99.90
31991;DHT22;18508;49.386;8.370;2023-04-08T00:03:34;8.20;99.90
31991;DHT22;18508;49.386;8.370;2023-04-08T00:06:05;8.20;99.90
31991;DHT22;18508;49.386;8.370;2023-04-08T00:08:34;8.30;99.90
31991;DHT22;18508;49.386;8.370;2023-04-08T00:11:02;8.20;99.90
31991;DHT22;18508;49.386;8.370;2023-04-08T00:13:30;8.30;99.90
31991;DHT22;18508;49.386;8.370;2023-04-08T00:15:58;8.30;99.90
31991;DHT22;18508;49.386;8.370;2023-04-08T00:18:27;8.40;99.90
31991;DHT22;18508;49.386;8.370;2023-04-08T00:20:55;8.40;99.90
31991;DHT22;18508;49.386;8.370;2023-04-08T00:23:26;8.40;99.90
31991;DHT22;18508;49.386;8.370;2023-04-08T00:25:55;8.40;99.90
31991;DHT22;18508;49.386;8.370;2023-04-08T00:28:24;8.40;99.90
31991;DHT22;18508;49.386;8.370;2023-04-08T00:30:53;8.50;99.90
31991;DHT22;18508;49.386;8.370;2023-04-08T00:33:21;8.50;99.90
31991;DHT22;18508;49.386;8.370;2023-04-08T00:35:52;8.50;99.90
31991;DHT22;18508;49.386;8.370;2023-04-08T00:38:20;8.60;99.90
31991;DHT22;18508;49.386;8.370;2023-04-08T00:40:50;8.50;99.90
31991;DHT22;18508;49.386;8.370;2023-04-08T00:43:18;8.50;99.90
31991;DHT22;18508;49.386;8.370;2023-04-08T00:45:47;8.60;99.90
31991;DHT22;18508;49.386;8.370;2023-04-08T00:48:16;8.60;99.90
31991;DHT22;18508;49.386;8.370;2023-04-08T00:50:46;8.60;99.90
31991;DHT22;18508;49.386;8.370;2023-04-08T00:53:17;8.60;99.90
31991;DHT22;18508;49.386;8.370;2023-04-08T00:55:45;8.60;99.90
31991;DHT22;18508;49.386;8.370;2023-04-08T00:58:16;8.60;99.90
31991;DHT22;18508;49.386;8.370;2023-04-08T01:00:49;8.60;99.90
31991;DHT22;18508;49.386;8.370;2023-04-08T01:03:37;8.60;99.90
31991;DHT22;18508;49.386;8.370;2023-04-08T01:06:14;8.60;99.90
31991;DHT22;18508;49.386;8.370;2023-04-08T01:08:43;8.60;99.90
31991;DHT22;18508;49.386;8.370;2023-04-08T01:11:13;8.60;99.90
31991;DHT22;18508;49.386;8.370;2023-04-08T01:13:44;8.60;99.90
31991;DHT22;18508;49.386;8.370;2023-04-08T01:16:14;8.60;99.90
31991;DHT22;18508;49.386;8.370;2023-04-08T01:18:44;8.60;99.90
31991;DHT22;18508;49.386;8.370;2023-04-08T01:21:15;8.60;99.90
31991;DHT22;18508;49.386;8.370;2023-04-08T01:23:52;8.60;99.90
31991;DHT22;18508;49.386;8.370;2023-04-08T01:26:25;8.70;99.90
31991;DHT22;18508;49.386;8.370;2023-04-08T01:28:56;8.70;99.90
31991;DHT22;18508;49.386;8.370;2023-04-08T01:31:25;8.70;99.90
31991;DHT22;18508;49.386;8.370;2023-04-08T01:33:54;8.70;99.90
31991;DHT22;18508;49.386;8.370;2023-04-08T01:36:23;8.60;99.90
31991;DHT22;18508;49.386;8.370;2023-04-08T01:38:53;8.60;99.90
31991;DHT22;18508;49.386;8.370;2023-04-08T01:41:24;8.60;99.90
31991;DHT22;18508;49.386;8.370;2023-04-08T01:43:53;8.60;99.90
31991;DHT22;18508;49.386;8.370;2023-04-08T01:46:22;8.60;99.90
31991;DHT22;18508;49.386;8.370;2023-04-08T01:48:51;8.60;99.90
31991;DHT22;18508;49.386;8.370;2023-04-08T01:51:21;8.60;99.90
31991;DHT22;18508;49.386;8.370;2023-04-08T01:53:49;8.60;99.90
31991;DHT22;18508;49.386;8.370;2023-04-08T01:56:23;8.60;99.90
31991;DHT22;18508;49.386;8.370;2023-04-08T01:58:54;8.60;99.90
31991;DHT22;18508;49.386;8.370;2023-04-08T02:01:26;8.60;99.90
31991;DHT22;18508;49.386;8.370;2023-04-08T02:03:57;8.60;99.90
31991;DHT22;18508;49.386;8.370;2023-04-08T02:06:28;8.60;99.90
31991;DHT22;18508;49.386;8.370;2023-04-08T02:09:00;8.50;99.90
31991;DHT22;18508;49.386;8.370;2023-04-08T02:11:35;8.50;99.90
31991;DHT22;18508;49.386;8.370;2023-04-08T02:14:03;8.50;99.90
31991;DHT22;18508;49.386;8.370;2023-04-08T02:16:37;8.50;99.90
31991;DHT22;18508;49.386;8.370;2023-04-08T02:19:09;8.50;99.90
31991;DHT22;18508;49.386;8.370;2023-04-08T02:21:45;8.50;99.90
31991;DHT22;18508;49.386;8.370;2023-04-08T02:24:16;8.50;99.90
31991;DHT22;18508;49.386;8.370;2023-04-08T02:26:49;8.50;99.90
31991;DHT22;18508;49.386;8.370;2023-04-08T02:29:20;8.50;99.90
31991;DHT22;18508;49.386;8.370;2023-04-08T02:31:49;8.40;99.90
31991;DHT22;18508;49.386;8.370;2023-04-08T02:34:20;8.40;99.90
31991;DHT22;18508;49.386;8.370;2023-04-08T02:36:49;8.40;99.90
31991;DHT22;18508;49.386;8.370;2023-04-08T02:39:18;8.40;99.90
31991;DHT22;18508;49.386;8.370;2023-04-08T02:41:48;8.40;99.90
31991;DHT22;18508;49.386;8.370;2023-04-08T02:44:16;8.30;99.90
31991;DHT22;18508;49.386;8.370;2023-04-08T02:46:45;8.30;99.90
31991;DHT22;18508;49.386;8.370;2023-04-08T02:49:15;8.30;99.90
31991;DHT22;18508;49.386;8.370;2023-04-08T02:51:45;8.30;99.90
31991;DHT22;18508;49.386;8.370;2023-04-08T02:54:13;8.20;99.90
31991;DHT22;18508;49.386;8.370;2023-04-08T02:56:41;8.30;99.90
31991;DHT22;18508;49.386;8.370;2023-04-08T02:59:13;8.20;99.90
31991;DHT22;18508;49.386;8.370;2023-04-08T03:01:44;8.20;99.90
31991;DHT22;18508;49.386;8.370;2023-04-08T03:04:16;8.20;99.90
31991;DHT22;18508;49.386;8.370;2023-04-08T03:06:46;8.30;99.90
31991;DHT22;18508;49.386;8.370;2023-04-08T03:09:15;8.20;99.90
31991;DHT22;18508;49.386;8.370;2023-04-08T03:11:46;8.30;99.90
31991;DHT22;18508;49.386;8.370;2023-04-08T03:14:20;8.30;99.90
31991;DHT22;18508;49.386;8.370;2023-04-08T03:16:48;8.20;99.90
31991;DHT22;18508;49.386;8.370;2023-04-08T03:19:16;8.20;99.90
31991;DHT22;18508;49.386;8.370;2023-04-08T03:21:44;8.30;99.90
31991;DHT22;18508;49.386;8.370;2023-04-08T03:24:13;8.20;99.90
31991;DHT22;18508;49.386;8.370;2023-04-08T03:26:44;8.20;99.90
31991;DHT22;18508;49.386;8.370;2023-04-08T03:29:12;8.20;99.90
31991;DHT22;18508;49.386;8.370;2023-04-08T03:31:41;8.30;99.90
31991;DHT22;18508;49.386;8.370;2023-04-08T03:34:10;8.20;99.90
31991;DHT22;18508;49.386;8.370;2023-04-08T03:36:38;8.20;99.90
31991;DHT22;18508;49.386;8.370;2023-04-08T03:39:06;8.20;99.90
31991;DHT22;18508;49.386;8.370;2023-04-08T03:41:34;8.20;99.90
31991;DHT22;18508;49.386;8.370;2023-04-08T03:44:03;8.20;99.90
31991;DHT22;18508;49.386;8.370;2023-04-08T03:46:32;8.20;99.90
31991;DHT22;18508;49.386;8.370;2023-04-08T03:49:01;8.20;99.90
31991;DHT22;18508;49.386;8.370;2023-04-08T03:51:30;8.30;99.90
31991;DHT22;18508;49.386;8.370;2023-04-08T03:53:59;8.30;99.90
31991;DHT22;18508;49.386;8.370;2023-04-08T03:56:29;8.20;99.90
31991;DHT22;18508;49.386;8.370;2023-04-08T03:59:00;8.20;99.90
31991;DHT22;18508;49.386;8.370;2023-04-08T04:01:28;8.30;99.90
31991;DHT22;18508;49.386;8.370;2023-04-08T04:03:58;8.30;99.90
31991;DHT22;18508;49.386;8.370;2023-04-08T04:06:28;8.30;99.90
31991;DHT22;18508;49.386;8.370;2023-04-08T04:08:57;8.30;99.90
31991;DHT22;18508;49.386;8.370;2023-04-08T04:11:25;8.20;99.90
31991;DHT22;18508;49.386;8.370;2023-04-08T04:13:53;8.30;99.90
31991;DHT22;18508;49.386;8.370;2023-04-08T04:16:21;8.30;99.90
31991;DHT22;18508;49.386;8.370;2023-04-08T04:18:51;8.30;99.90
31991;DHT22;18508;49.386;8.370;2023-04-08T04:21:20;8.20;99.90
31991;DHT22;18508;49.386;8.370;2023-04-08T04:23:50;8.30;99.90
31991;DHT22;18508;49.386;8.370;2023-04-08T04:26:18;8.30;99.90
31991;DHT22;18508;49.386;8.370;2023-04-08T04:28:46;8.20;99.90
31991;DHT22;18508;49.386;8.370;2023-04-08T04:31:19;8.30;99.90
31991;DHT22;18508;49.386;8.370;2023-04-08T04:33:49;8.30;99.90
31991;DHT22;18508;49.386;8.370;2023-04-08T04:36:17;8.20;99.90
31991;DHT22;18508;49.386;8.370;2023-04-08T04:38:45;8.20;99.90
31991;DHT22;18508;49.386;8.370;2023-04-08T04:41:17;8.20;99.90
31991;DHT22;18508;49.386;8.370;2023-04-08T04:43:47;8.20;99.90
31991;DHT22;18508;49.386;8.370;2023-04-08T04:46:15;8.20;99.90
31991;DHT22;18508;49.386;8.370;2023-04-08T04:48:44;8.20;99.90
31991;DHT22;18508;49.386;8.370;2023-04-08T04:51:12;8.20;99.90
31991;DHT22;18508;49.386;8.370;2023-04-08T04:53:40;8.10;99.90
31991;DHT22;18508;49.386;8.370;2023-04-08T04:56:08;8.10;99.90
31991;DHT22;18508;49.386;8.370;2023-04-08T04:58:39;8.10;99.90
31991;DHT22;18508;49.386;8.370;2023-04-08T05:01:07;8.10;99.90
31991;DHT22;18508;49.386;8.370;2023-04-08T05:03:37;8.10;99.90
31991;DHT22;18508;49.386;8.370;2023-04-08T05:06:05;8.10;99.90
31991;DHT22;18508;49.386;8.370;2023-04-08T05:08:33;8.20;99.90
31991;DHT22;18508;49.386;8.370;2023-04-08T05:11:03;8.10;99.90
31991;DHT22;18508;49.386;8.370;2023-04-08T05:13:31;8.10;99.90
31991;DHT22;18508;49.386;8.370;2023-04-08T05:16:02;8.10;99.90
31991;DHT22;18508;49.386;8.370;2023-04-08T05:18:30;8.20;99.90
31991;DHT22;18508;49.386;8.370;2023-04-08T05:21:01;8.20;99.90
31991;DHT22;18508;49.386;8.370;2023-04-08T05:23:30;8.20;99.90
31991;DHT22;18508;49.386;8.370;2023-04-08T05:25:58;8.20;99.90
31991;DHT22;18508;49.386;8.370;2023-04-08T05:28:26;8.20;99.90
31991;DHT22;18508;49.386;8.370;2023-04-08T05:30:54;8.20;99.90
31991;DHT22;18508;49.386;8.370;2023-04-08T05:33:24;8.30;99.90
31991;DHT22;18508;49.386;8.370;2023-04-08T05:35:52;8.20;99.90
31991;DHT22;18508;49.386;8.370;2023-04-08T05:38:20;8.20;99.90
31991;DHT22;18508;49.386;8.370;2023-04-08T05:40:48;8.30;99.90
31991;DHT22;18508;49.386;8.370;2023-04-08T05:43:18;8.30;99.90
31991;DHT22;18508;49.386;8.370;2023-04-08T05:45:46;8.30;99.90
31991;DHT22;18508;49.386;8.370;2023-04-08T05:48:14;8.40;99.90
31991;DHT22;18508;49.386;8.370;2023-04-08T05:50:45;8.40;99.90
31991;DHT22;18508;49.386;8.370;2023-04-08T05:53:14;8.40;99.90
31991;DHT22;18508;49.386;8.370;2023-04-08T05:55:42;8.50;99.90
31991;DHT22;18508;49.386;8.370;2023-04-08T05:58:10;8.70;99.90
31991;DHT22;18508;49.386;8.370;2023-04-08T06:00:39;8.70;99.90
31991;DHT22;18508;49.386;8.370;2023-04-08T06:03:08;8.90;99.90
31991;DHT22;18508;49.386;8.370;2023-04-08T06:05:36;9.00;99.90
31991;DHT22;18508;49.386;8.370;2023-04-08T06:08:08;8.90;99.90
31991;DHT22;18508;49.386;8.370;2023-04-08T06:10:36;9.00;99.90
31991;DHT22;18508;49.386;8.370;2023-04-08T06:13:05;9.00;99.90
31991;DHT22;18508;49.386;8.370;2023-04-08T06:15:33;9.10;99.90
31991;DHT22;18508;49.386;8.370;2023-04-08T06:18:01;9.10;99.90
31991;DHT22;18508;49.386;8.370;2023-04-08T06:20:31;9.00;99.90
31991;DHT22;18508;49.386;8.370;2023-04-08T06:22:59;9.10;99.90
31991;DHT22;18508;49.386;8.370;2023-04-08T06:25:29;9.20;99.90
31991;DHT22;18508;49.386;8.370;2023-04-08T06:27:57;9.30;99.90
31991;DHT22;18508;49.386;8.370;2023-04-08T06:30:26;9.40;99.90
31991;DHT22;18508;49.386;8.370;2023-04-08T06:32:54;9.50;99.90
31991;DHT22;18508;49.386;8.370;2023-04-08T06:35:22;9.50;99.90
31991;DHT22;18508;49.386;8.370;2023-04-08T06:37:50;9.70;99.90
31991;DHT22;18508;49.386;8.370;2023-04-08T06:40:19;9.80;99.90
31991;DHT22;18508;49.386;8.370;2023-04-08T06:42:48;9.70;99.90
31991;DHT22;18508;49.386;8.370;2023-04-08T06:45:19;9.80;99.90
31991;DHT22;18508;49.386;8.370;2023-04-08T06:47:48;9.90;99.90
31991;DHT22;18508;49.386;8.370;2023-04-08T06:50:18;9.90;99.90
31991;DHT22;18508;49.386;8.370;2023-04-08T06:52:46;9.90;99.90
31991;DHT22;18508;49.386;8.370;2023-04-08T06:55:15;9.90;99.90
31991;DHT22;18508;49.386;8.370;2023-04-08T06:57:43;9.70;99.90
31991;DHT22;18508;49.386;8.370;2023-04-08T07:00:13;9.60;99.90
31991;DHT22;18508;49.386;8.370;2023-04-08T07:02:42;9.60;99.90
31991;DHT22;18508;49.386;8.370;2023-04-08T07:05:10;9.60;99.90
31991;DHT22;18508;49.386;8.370;2023-04-08T07:07:39;9.60;99.90
31991;DHT22;18508;49.386;8.370;2023-04-08T07:10:07;9.60;99.90
31991;DHT22;18508;49.386;8.370;2023-04-08T07:12:38;9.70;99.90
31991;DHT22;18508;49.386;8.370;2023-04-08T07:15:08;9.80;99.90
31991;DHT22;18508;49.386;8.370;2023-04-08T07:17:38;9.80;99.90
31991;DHT22;18508;49.386;8.370;2023-04-08T07:20:07;9.80;99.90
31991;DHT22;18508;49.386;8.370;2023-04-08T07:22:35;9.90;99.90
31991;DHT22;18508;49.386;8.370;2023-04-08T07:25:03;10.10;99.90
31991;DHT22;18508;49.386;8.370;2023-04-08T07:27:33;10.00;99.90
31991;DHT22;18508;49.386;8.370;2023-04-08T07:30:01;10.00;99.90
31991;DHT22;18508;49.386;8.370;2023-04-08T07:32:30;10.30;99.90
31991;DHT22;18508;49.386;8.370;2023-04-08T07:35:02;10.10;99.90
31991;DHT22;18508;49.386;8.370;2023-04-08T07:37:30;10.10;99.90
31991;DHT22;18508;49.386;8.370;2023-04-08T07:39:58;10.30;99.90
31991;DHT22;18508;49.386;8.370;2023-04-08T07:42:27;10.40;99.90
31991;DHT22;18508;49.386;8.370;2023-04-08T07:44:55;10.80;99.90
31991;DHT22;18508;49.386;8.370;2023-04-08T07:47:25;10.90;99.90
31991;DHT22;18508;49.386;8.370;2023-04-08T07:49:53;10.80;99.90
31991;DHT22;18508;49.386;8.370;2023-04-08T07:52:22;10.90;99.90
31991;DHT22;18508;49.386;8.370;2023-04-08T07:54:55;10.90;99.90
31991;DHT22;18508;49.386;8.370;2023-04-08T07:57:24;10.90;99.90
31991;DHT22;18508;49.386;8.370;2023-04-08T07:59:52;10.80;99.90
31991;DHT22;18508;49.386;8.370;2023-04-08T08:02:21;10.80;99.90
31991;DHT22;18508;49.386;8.370;2023-04-08T08:04:49;10.80;99.90
31991;DHT22;18508;49.386;8.370;2023-04-08T08:07:17;10.80;99.90
31991;DHT22;18508;49.386;8.370;2023-04-08T08:09:47;10.60;99.90
31991;DHT22;18508;49.386;8.370;2023-04-08T08:12:15;10.60;99.90
31991;DHT22;18508;49.386;8.370;2023-04-08T08:14:43;10.60;99.90
31991;DHT22;18508;49.386;8.370;2023-04-08T08:17:13;10.60;99.90
31991;DHT22;18508;49.386;8.370;2023-04-08T08:19:41;10.50;99.90
31991;DHT22;18508;49.386;8.370;2023-04-08T08:22:11;10.40;99.90
31991;DHT22;18508;49.386;8.370;2023-04-08T08:24:39;10.50;99.90
31991;DHT22;18508;49.386;8.370;2023-04-08T08:27:10;10.50;99.90
31991;DHT22;18508;49.386;8.370;2023-04-08T08:29:38;10.60;99.90
31991;DHT22;18508;49.386;8.370;2023-04-08T08:32:07;10.80;99.90
31991;DHT22;18508;49.386;8.370;2023-04-08T08:34:35;10.90;99.90
31991;DHT22;18508;49.386;8.370;2023-04-08T08:37:05;10.90;94.60
31991;DHT22;18508;49.386;8.370;2023-04-08T08:39:33;10.80;96.10
31991;DHT22;18508;49.386;8.370;2023-04-08T08:42:01;10.70;99.90
31991;DHT22;18508;49.386;8.370;2023-04-08T08:44:30;10.80;99.90
31991;DHT22;18508;49.386;8.370;2023-04-08T08:46:59;10.70;99.90
31991;DHT22;18508;49.386;8.370;2023-04-08T08:49:27;10.60;99.90
31991;DHT22;18508;49.386;8.370;2023-04-08T08:51:56;10.70;99.90
31991;DHT22;18508;49.386;8.370;2023-04-08T08:54:26;11.00;96.20
31991;DHT22;18508;49.386;8.370;2023-04-08T08:56:54;11.20;96.40
31991;DHT22;18508;49.386;8.370;2023-04-08T08:59:22;11.30;6.90
31991;DHT22;18508;49.386;8.370;2023-04-08T09:01:52;11.60;1.00
31991;DHT22;18508;49.386;8.370;2023-04-08T09:04:21;11.60;1.00
31991;DHT22;18508;49.386;8.370;2023-04-08T09:07:08;11.70;1.00
31991;DHT22;18508;49.386;8.370;2023-04-08T09:09:47;11.80;1.00
31991;DHT22;18508;49.386;8.370;2023-04-08T09:12:15;11.80;1.00
31991;DHT22;18508;49.386;8.370;2023-04-08T09:14:44;11.70;1.00
31991;DHT22;18508;49.386;8.370;2023-04-08T09:17:30;11.70;1.00
31991;DHT22;18508;49.386;8.370;2023-04-08T09:20:04;11.70;1.00
31991;DHT22;18508;49.386;8.370;2023-04-08T09:22:54;11.70;1.00
31991;DHT22;18508;49.386;8.370;2023-04-08T09:25:23;11.80;1.00
31991;DHT22;18508;49.386;8.370;2023-04-08T09:27:54;12.30;1.00
31991;DHT22;18508;49.386;8.370;2023-04-08T09:30:26;12.50;1.00
31991;DHT22;18508;49.386;8.370;2023-04-08T09:32:56;12.30;1.00
31991;DHT22;18508;49.386;8.370;2023-04-08T09:35:25;12.30;1.00
31991;DHT22;18508;49.386;8.370;2023-04-08T09:37:53;12.40;99.90
31991;DHT22;18508;49.386;8.370;2023-04-08T09:40:22;12.40;94.40
31991;DHT22;18508;49.386;8.370;2023-04-08T09:42:53;12.60;99.90
31991;DHT22;18508;49.386;8.370;2023-04-08T09:45:22;12.80;1.00
31991;DHT22;18508;49.386;8.370;2023-04-08T09:48:01;12.70;1.00
31991;DHT22;18508;49.386;8.370;2023-04-08T09:50:32;12.50;1.00
31991;DHT22;18508;49.386;8.370;2023-04-08T09:53:10;12.70;1.00
31991;DHT22;18508;49.386;8.370;2023-04-08T09:55:41;12.80;1.00
31991;DHT22;18508;49.386;8.370;2023-04-08T09:58:15;12.80;1.00
31991;DHT22;18508;49.386;8.370;2023-04-08T10:00:45;12.90;1.00
31991;DHT22;18508;49.386;8.370;2023-04-08T10:03:25;12.90;1.00
31991;DHT22;18508;49.386;8.370;2023-04-08T10:05:55;12.80;99.90
31991;DHT22;18508;49.386;8.370;2023-04-08T10:08:24;12.70;1.00
31991;DHT22;18508;49.386;8.370;2023-04-08T10:10:53;12.80;1.00
31991;DHT22;18508;49.386;8.370;2023-04-08T10:13:23;12.90;1.00
31991;DHT22;18508;49.386;8.370;2023-04-08T10:16:17;12.80;1.00
31991;DHT22;18508;49.386;8.370;2023-04-08T10:18:47;13.10;1.00
31991;DHT22;18508;49.386;8.370;2023-04-08T10:21:38;13.00;1.00
31991;DHT22;18508;49.386;8.370;2023-04-08T10:24:10;12.90;1.00
31991;DHT22;18508;49.386;8.370;2023-04-08T10:26:39;13.10;1.00
31991;DHT22;18508;49.386;8.370;2023-04-08T10:29:40;13.40;1.00
31991;DHT22;18508;49.386;8.370;2023-04-08T10:32:27;13.40;1.00
31991;DHT22;18508;49.386;8.370;2023-04-08T10:34:57;13.50;1.00
31991;DHT22;18508;49.386;8.370;2023-04-08T10:37:25;13.40;1.00
31991;DHT22;18508;49.386;8.370;2023-04-08T10:39:54;13.40;1.00
31991;DHT22;18508;49.386;8.370;2023-04-08T10:42:26;13.80;1.00
31991;DHT22;18508;49.386;8.370;2023-04-08T10:44:59;14.10;1.00
31991;DHT22;18508;49.386;8.370;2023-04-08T10:47:29;13.70;1.00
31991;DHT22;18508;49.386;8.370;2023-04-08T10:50:00;13.30;1.00
31991;DHT22;18508;49.386;8.370;2023-04-08T10:52:45;13.00;1.00
31991;DHT22;18508;49.386;8.370;2023-04-08T10:55:16;12.60;1.00
31991;DHT22;18508;49.386;8.370;2023-04-08T10:57:49;12.60;1.00
31991;DHT22;18508;49.386;8.370;2023-04-08T11:00:18;12.70;99.90
31991;DHT22;18508;49.386;8.370;2023-04-08T11:02:46;12.50;99.90
31991;DHT22;18508;49.386;8.370;2023-04-08T11:05:15;12.50;1.00
31991;DHT22;18508;49.386;8.370;2023-04-08T11:07:45;12.40;1.00
31991;DHT22;18508;49.386;8.370;2023-04-08T11:10:15;12.30;99.90
31991;DHT22;18508;49.386;8.370;2023-04-08T11:12:44;12.30;1.00
31991;DHT22;18508;49.386;8.370;2023-04-08T11:15:12;12.40;1.00
31991;DHT22;18508;49.386;8.370;2023-04-08T11:17:41;12.50;1.00
31991;DHT22;18508;49.386;8.370;2023-04-08T11:20:10;12.20;99.90
31991;DHT22;18508;49.386;8.370;2023-04-08T11:22:40;12.40;1.00
31991;DHT22;18508;49.386;8.370;2023-04-08T11:25:10;12.50;1.00
31991;DHT22;18508;49.386;8.370;2023-04-08T11:27:41;12.60;1.00
31991;DHT22;18508;49.386;8.370;2023-04-08T11:30:10;13.00;1.00
31991;DHT22;18508;49.386;8.370;2023-04-08T11:32:40;13.20;1.00
31991;DHT22;18508;49.386;8.370;2023-04-08T11:35:08;13.10;1.00
31991;DHT22;18508;49.386;8.370;2023-04-08T11:37:37;13.00;99.90
31991;DHT22;18508;49.386;8.370;2023-04-08T11:40:12;13.00;1.00
31991;DHT22;18508;49.386;8.370;2023-04-08T11:42:40;13.00;99.90
31991;DHT22;18508;49.386;8.370;2023-04-08T11:45:11;13.00;15.00
31991;DHT22;18508;49.386;8.370;2023-04-08T11:47:41;13.00;99.90
31991;DHT22;18508;49.386;8.370;2023-04-08T11:50:10;13.20;1.00
31991;DHT22;18508;49.386;8.370;2023-04-08T11:52:43;13.30;99.90
31991;DHT22;18508;49.386;8.370;2023-04-08T11:55:21;13.60;1.00
31991;DHT22;18508;49.386;8.370;2023-04-08T11:57:50;13.70;99.90
31991;DHT22;18508;49.386;8.370;2023-04-08T12:00:19;13.60;99.90
31991;DHT22;18508;49.386;8.370;2023-04-08T12:02:48;13.70;1.00
31991;DHT22;18508;49.386;8.370;2023-04-08T12:05:17;13.60;1.00
31991;DHT22;18508;49.386;8.370;2023-04-08T12:07:45;13.30;1.00
31991;DHT22;18508;49.386;8.370;2023-04-08T12:10:14;13.20;2.30
31991;DHT22;18508;49.386;8.370;2023-04-08T12:12:43;13.20;99.90
31991;DHT22;18508;49.386;8.370;2023-04-08T12:15:11;13.50;17.00
31991;DHT22;18508;49.386;8.370;2023-04-08T12:17:42;13.90;1.00
31991;DHT22;18508;49.386;8.370;2023-04-08T12:20:12;14.20;78.90
31991;DHT22;18508;49.386;8.370;2023-04-08T12:22:42;14.10;1.00
31991;DHT22;18508;49.386;8.370;2023-04-08T12:25:10;14.20;1.00
31991;DHT22;18508;49.386;8.370;2023-04-08T12:27:40;14.50;1.00
31991;DHT22;18508;49.386;8.370;2023-04-08T12:30:09;14.30;99.90
31991;DHT22;18508;49.386;8.370;2023-04-08T12:32:37;14.40;99.90
31991;DHT22;18508;49.386;8.370;2023-04-08T12:35:07;14.50;68.20
31991;DHT22;18508;49.386;8.370;2023-04-08T12:37:36;14.60;1.00
31991;DHT22;18508;49.386;8.370;2023-04-08T12:40:07;14.60;1.00
31991;DHT22;18508;49.386;8.370;2023-04-08T12:42:36;14.40;1.00
31991;DHT22;18508;49.386;8.370;2023-04-08T12:45:08;14.40;99.90
31991;DHT22;18508;49.386;8.370;2023-04-08T12:47:36;14.40;1.00
31991;DHT22;18508;49.386;8.370;2023-04-08T12:50:08;14.40;1.00
31991;DHT22;18508;49.386;8.370;2023-04-08T12:52:37;14.60;27.50
31991;DHT22;18508;49.386;8.370;2023-04-08T12:55:06;14.70;73.90
31991;DHT22;18508;49.386;8.370;2023-04-08T12:57:34;15.00;99.90
31991;DHT22;18508;49.386;8.370;2023-04-08T13:00:03;15.10;1.00
31991;DHT22;18508;49.386;8.370;2023-04-08T13:02:32;14.70;1.00
31991;DHT22;18508;49.386;8.370;2023-04-08T13:05:01;15.30;1.00
31991;DHT22;18508;49.386;8.370;2023-04-08T13:07:29;15.10;1.00
31991;DHT22;18508;49.386;8.370;2023-04-08T13:09:57;15.30;1.00
31991;DHT22;18508;49.386;8.370;2023-04-08T13:12:25;15.40;1.00
31991;DHT22;18508;49.386;8.370;2023-04-08T13:14:53;15.00;1.00
31991;DHT22;18508;49.386;8.370;2023-04-08T13:17:22;15.30;1.00
31991;DHT22;18508;49.386;8.370;2023-04-08T13:19:51;15.20;1.00
31991;DHT22;18508;49.386;8.370;2023-04-08T13:22:20;15.20;79.10
31991;DHT22;18508;49.386;8.370;2023-04-08T13:24:48;15.00;1.00
31991;DHT22;18508;49.386;8.370;2023-04-08T13:27:17;15.20;28.00
31991;DHT22;18508;49.386;8.370;2023-04-08T13:29:45;15.40;1.00
31991;DHT22;18508;49.386;8.370;2023-04-08T13:32:15;15.60;1.00
31991;DHT22;18508;49.386;8.370;2023-04-08T13:34:43;15.30;1.00
31991;DHT22;18508;49.386;8.370;2023-04-08T13:37:13;15.30;1.00
31991;DHT22;18508;49.386;8.370;2023-04-08T13:39:41;14.80;19.80
31991;DHT22;18508;49.386;8.370;2023-04-08T13:42:09;14.90;16.50
31991;DHT22;18508;49.386;8.370;2023-04-08T13:44:37;15.00;29.20
31991;DHT22;18508;49.386;8.370;2023-04-08T13:47:07;15.00;99.90
31991;DHT22;18508;49.386;8.370;2023-04-08T13:49:35;15.20;99.90
31991;DHT22;18508;49.386;8.370;2023-04-08T13:52:03;15.60;1.00
31991;DHT22;18508;49.386;8.370;2023-04-08T13:54:33;16.20;1.00
31991;DHT22;18508;49.386;8.370;2023-04-08T13:57:01;15.70;1.00
31991;DHT22;18508;49.386;8.370;2023-04-08T13:59:29;15.80;1.00
31991;DHT22;18508;49.386;8.370;2023-04-08T14:02:03;16.30;1.00
31991;DHT22;18508;49.386;8.370;2023-04-08T14:04:31;16.30;1.00
31991;DHT22;18508;49.386;8.370;2023-04-08T14:07:00;17.00;99.90
31991;DHT22;18508;49.386;8.370;2023-04-08T14:09:30;16.70;1.00
31991;DHT22;18508;49.386;8.370;2023-04-08T14:12:00;16.90;1.00
31991;DHT22;18508;49.386;8.370;2023-04-08T14:14:28;17.30;1.00
31991;DHT22;18508;49.386;8.370;2023-04-08T14:16:57;17.10;1.00
31991;DHT22;18508;49.386;8.370;2023-04-08T14:19:28;17.00;23.70
31991;DHT22;18508;49.386;8.370;2023-04-08T14:22:00;16.40;1.00
31991;DHT22;18508;49.386;8.370;2023-04-08T14:24:28;17.00;1.00
31991;DHT22;18508;49.386;8.370;2023-04-08T14:26:56;16.90;1.00
31991;DHT22;18508;49.386;8.370;2023-04-08T14:29:26;17.10;1.00
31991;DHT22;18508;49.386;8.370;2023-04-08T14:31:54;17.30;1.00
31991;DHT22;18508;49.386;8.370;2023-04-08T14:34:24;18.10;1.00
31991;DHT22;18508;49.386;8.370;2023-04-08T14:36:52;18.50;99.90
31991;DHT22;18508;49.386;8.370;2023-04-08T14:39:28;18.30;99.90
31991;DHT22;18508;49.386;8.370;2023-04-08T14:41:56;17.60;99.90
31991;DHT22;18508;49.386;8.370;2023-04-08T14:44:26;17.00;35.50
31991;DHT22;18508;49.386;8.370;2023-04-08T14:46:54;16.20;1.00
31991;DHT22;18508;49.386;8.370;2023-04-08T14:49:23;15.40;99.90
31991;DHT22;18508;49.386;8.370;2023-04-08T14:51:51;15.40;1.00
31991;DHT22;18508;49.386;8.370;2023-04-08T14:54:19;14.90;99.90
31991;DHT22;18508;49.386;8.370;2023-04-08T14:56:47;14.80;12.20
31991;DHT22;18508;49.386;8.370;2023-04-08T14:59:16;15.00;1.00
31991;DHT22;18508;49.386;8.370;2023-04-08T15:01:46;15.10;1.00
31991;DHT22;18508;49.386;8.370;2023-04-08T15:04:14;15.10;1.00
31991;DHT22;18508;49.386;8.370;2023-04-08T15:06:42;15.10;1.00
31991;DHT22;18508;49.386;8.370;2023-04-08T15:09:10;15.20;1.00
31991;DHT22;18508;49.386;8.370;2023-04-08T15:11:38;15.40;99.90
31991;DHT22;18508;49.386;8.370;2023-04-08T15:14:06;15.20;1.00
31991;DHT22;18508;49.386;8.370;2023-04-08T15:16:35;15.00;1.80
31991;DHT22;18508;49.386;8.370;2023-04-08T15:19:04;14.90;1.00
31991;DHT22;18508;49.386;8.370;2023-04-08T15:21:32;14.40;1.00
31991;DHT22;18508;49.386;8.370;2023-04-08T15:24:01;14.40;99.90
31991;DHT22;18508;49.386;8.370;2023-04-08T15:26:29;14.00;1.00
31991;DHT22;18508;49.386;8.370;2023-04-08T15:28:57;14.00;1.00
31991;DHT22;18508;49.386;8.370;2023-04-08T15:31:26;14.00;1.00
31991;DHT22;18508;49.386;8.370;2023-04-08T15:33:56;14.10;1.00
31991;DHT22;18508;49.386;8.370;2023-04-08T15:36:25;14.10;99.90
31991;DHT22;18508;49.386;8.370;2023-04-08T15:38:56;13.90;99.90
31991;DHT22;18508;49.386;8.370;2023-04-08T15:41:24;14.00;1.00
31991;DHT22;18508;49.386;8.370;2023-04-08T15:43:55;13.90;1.00
31991;DHT22;18508;49.386;8.370;2023-04-08T15:46:23;13.80;1.00
31991;DHT22;18508;49.386;8.370;2023-04-08T15:48:51;13.70;1.00
31991;DHT22;18508;49.386;8.370;2023-04-08T15:51:19;13.60;99.90
31991;DHT22;18508;49.386;8.370;2023-04-08T15:53:49;13.50;1.00
31991;DHT22;18508;49.386;8.370;2023-04-08T15:56:18;13.30;1.00
31991;DHT22;18508;49.386;8.370;2023-04-08T15:58:46;13.40;1.00